createdAt,value
2024-02-28T00:01:10.961Z,28.50
2024-02-28T00:05:03.549Z,27.10
2024-02-28T00:09:02.565Z,25.90
2024-02-28T00:13:00.620Z,26.80
2024-02-28T00:16:59.608Z,24.50
2024-02-28T00:21:01.512Z,23.70
2024-02-28T00:24:59.569Z,23.40
2024-02-28T00:28:57.534Z,22.90
2024-02-28T00:32:55.656Z,23.20
2024-02-28T00:36:56.269Z,23.80
2024-02-28T00:40:54.503Z,23.80
2024-02-28T00:44:52.489Z,23.10
2024-02-28T00:48:50.546Z,23.10
2024-02-28T00:52:41.644Z,22.00
2024-02-28T00:56:39.509Z,23.40
2024-02-28T01:00:37.528Z,22.50
2024-02-28T01:04:35.502Z,22.40
2024-02-28T01:08:33.433Z,23.40
2024-02-28T01:12:31.540Z,24.90
2024-02-28T01:16:29.467Z,23.50
2024-02-28T01:20:27.489Z,24.30
2024-02-28T01:24:25.527Z,23.60
2024-02-28T01:28:23.498Z,22.10
2024-02-28T01:32:21.422Z,23.50
2024-02-28T01:36:22.563Z,23.80
2024-02-28T01:40:20.424Z,23.00
2024-02-28T01:44:18.492Z,23.10
2024-02-28T01:48:16.845Z,23.20
2024-02-28T01:52:14.442Z,23.70
2024-02-28T01:56:12.445Z,24.00
2024-02-28T02:00:10.419Z,24.10
2024-02-28T02:04:08.417Z,24.00
2024-02-28T02:08:06.491Z,22.90
2024-02-28T02:12:04.379Z,22.70
2024-02-28T02:16:02.474Z,23.80
2024-02-28T02:20:00.449Z,21.60
2024-02-28T02:23:58.385Z,22.90
2024-02-28T02:27:56.427Z,23.90
2024-02-28T02:31:54.406Z,23.70
2024-02-28T02:35:52.398Z,24.50
2024-02-28T02:39:50.494Z,23.30
2024-02-28T02:43:48.399Z,22.90
2024-02-28T02:47:46.430Z,22.00
2024-02-28T02:51:44.445Z,22.80
2024-02-28T02:55:42.366Z,23.70
2024-02-28T02:59:40.350Z,22.00
2024-02-28T03:03:38.433Z,23.30
2024-02-28T03:07:36.358Z,24.10
2024-02-28T03:11:34.331Z,22.20
2024-02-28T03:15:32.355Z,22.40
2024-02-28T03:19:30.380Z,21.40
2024-02-28T03:23:28.332Z,20.80
2024-02-28T03:27:26.335Z,20.60
2024-02-28T03:31:24.301Z,22.00
2024-02-28T03:35:22.320Z,22.50
2024-02-28T03:39:20.387Z,22.80
2024-02-28T03:43:18.366Z,22.80
2024-02-28T03:47:16.307Z,24.00
2024-02-28T03:51:14.296Z,23.60
2024-02-28T03:55:12.268Z,22.80
2024-02-28T03:59:11.300Z,21.60
2024-02-28T04:03:09.285Z,23.60
2024-02-28T04:07:07.267Z,24.10
2024-02-28T04:11:05.299Z,24.20
2024-02-28T04:15:03.256Z,26.80
2024-02-28T04:19:01.442Z,25.40
2024-02-28T04:22:59.263Z,27.30
2024-02-28T04:26:57.225Z,24.30
2024-02-28T04:30:55.353Z,25.50
2024-02-28T04:34:53.228Z,25.20
2024-02-28T04:38:51.227Z,25.80
2024-02-28T04:42:49.374Z,26.60
2024-02-28T04:46:47.326Z,26.70
2024-02-28T04:50:45.228Z,26.20
2024-02-28T04:54:43.235Z,26.20
2024-02-28T04:58:41.206Z,25.40
2024-02-28T05:02:39.192Z,23.80
2024-02-28T05:06:40.265Z,25.10
2024-02-28T05:10:38.218Z,24.20
2024-02-28T05:14:36.187Z,23.70
2024-02-28T05:18:34.301Z,23.60
2024-02-28T05:22:32.155Z,22.60
2024-02-28T05:26:30.277Z,23.90
2024-02-28T05:30:28.236Z,24.20
2024-02-28T05:34:26.181Z,25.00
2024-02-28T05:38:24.161Z,25.50
2024-02-28T05:42:25.268Z,25.20
2024-02-28T05:46:23.195Z,25.20
2024-02-28T05:50:22.301Z,23.50
2024-02-28T05:54:20.183Z,24.40
2024-02-28T05:58:18.146Z,22.80
2024-02-28T06:02:16.180Z,22.80
2024-02-28T06:06:14.177Z,23.70
2024-02-28T06:10:12.168Z,21.80
2024-02-28T06:14:10.144Z,23.70
2024-02-28T06:18:08.195Z,22.50
2024-02-28T06:22:06.260Z,23.60
2024-02-28T06:26:04.088Z,26.80
2024-02-28T06:30:02.116Z,24.60
2024-02-28T06:34:00.190Z,23.90
2024-02-28T06:37:59.129Z,26.50
2024-02-28T06:41:58.124Z,25.10
2024-02-28T06:45:56.235Z,26.50
2024-02-28T06:49:54.165Z,27.30
2024-02-28T06:53:52.176Z,28.10
2024-02-28T06:57:50.112Z,28.40
2024-02-28T07:01:27.847Z,29.90
2024-02-28T07:04:52.036Z,29.50
2024-02-28T07:08:16.127Z,30.60
2024-02-28T07:11:40.672Z,28.50
2024-02-28T07:15:05.075Z,27.80
2024-02-28T07:18:30.179Z,27.20
2024-02-28T07:21:54.447Z,24.70
2024-02-28T07:25:21.137Z,24.70
2024-02-28T07:28:50.578Z,24.10
2024-02-28T07:32:14.554Z,23.80
2024-02-28T07:35:52.165Z,23.70
2024-02-28T07:39:16.151Z,24.80
2024-02-28T07:42:40.196Z,24.50
2024-02-28T07:46:04.301Z,25.80
2024-02-28T07:49:29.143Z,19.80
2024-02-28T07:52:56.888Z,24.60
2024-02-28T07:56:22.382Z,23.80
2024-02-28T07:59:46.822Z,18.70
2024-02-28T08:03:10.851Z,24.80
2024-02-28T08:06:35.282Z,19.00
2024-02-28T08:09:59.475Z,23.90
2024-02-28T08:13:23.465Z,20.10
2024-02-28T08:16:47.448Z,19.60
2024-02-28T08:20:11.747Z,20.20
2024-02-28T08:23:35.893Z,21.70
2024-02-28T08:26:59.884Z,20.40
2024-02-28T08:30:23.909Z,19.00
2024-02-28T08:33:48.087Z,20.50
2024-02-28T08:37:12.203Z,19.60
2024-02-28T08:40:36.388Z,20.00
2024-02-28T08:44:00.388Z,18.50
2024-02-28T08:47:28.206Z,18.40
2024-02-28T08:50:52.539Z,20.00
2024-02-28T08:54:16.766Z,18.90
2024-02-28T08:57:40.928Z,16.30
2024-02-28T09:01:05.410Z,17.20
2024-02-28T09:04:30.082Z,16.50
2024-02-28T09:07:56.225Z,15.20
2024-02-28T09:11:20.414Z,14.90
2024-02-28T09:14:45.656Z,16.20
2024-02-28T09:18:10.069Z,16.40
2024-02-28T09:21:34.274Z,17.10
2024-02-28T09:24:58.339Z,15.80
2024-02-28T09:28:22.340Z,15.60
2024-02-28T09:31:46.454Z,15.40
2024-02-28T09:35:11.565Z,16.40
2024-02-28T09:38:36.193Z,15.20
2024-02-28T09:42:00.278Z,15.80
2024-02-28T09:45:25.875Z,15.40
2024-02-28T09:48:52.023Z,12.90
2024-02-28T09:52:16.823Z,13.80
2024-02-28T09:55:41.072Z,14.10
2024-02-28T09:59:05.146Z,15.80
2024-02-28T10:02:33.389Z,16.00
2024-02-28T10:05:57.428Z,15.80
2024-02-28T10:09:21.492Z,17.40
2024-02-28T10:12:45.675Z,17.00
2024-02-28T10:16:09.778Z,15.20
2024-02-28T10:19:33.876Z,15.60
2024-02-28T10:22:57.931Z,14.60
2024-02-28T10:26:22.144Z,14.50
2024-02-28T10:29:47.907Z,16.00
2024-02-28T10:33:16.699Z,14.50
2024-02-28T10:36:41.463Z,14.50
2024-02-28T10:40:07.281Z,14.00
2024-02-28T10:43:32.038Z,14.00
2024-02-28T10:46:56.554Z,14.30
2024-02-28T10:50:20.655Z,13.70
2024-02-28T10:53:49.100Z,15.00
2024-02-28T10:57:15.531Z,13.70
2024-02-28T11:00:42.796Z,14.90
2024-02-28T11:04:08.295Z,15.30
2024-02-28T11:07:33.557Z,18.00
2024-02-28T11:10:58.744Z,13.30
2024-02-28T11:14:26.028Z,13.40
2024-02-28T11:17:50.454Z,13.00
2024-02-28T11:21:18.235Z,12.80
2024-02-28T11:24:46.737Z,13.80
2024-02-28T11:28:11.599Z,13.10
2024-02-28T11:31:35.629Z,14.10
2024-02-28T11:34:59.591Z,13.00
2024-02-28T11:38:23.969Z,14.10
2024-02-28T11:41:48.773Z,14.10
2024-02-28T11:45:13.375Z,14.10
2024-02-28T11:48:37.473Z,14.00
2024-02-28T11:52:01.584Z,13.00
2024-02-28T11:55:27.741Z,12.10
2024-02-28T11:58:56.693Z,11.90
2024-02-28T12:02:20.692Z,13.30
2024-02-28T12:05:45.658Z,13.60
2024-02-28T12:09:11.405Z,12.90
2024-02-28T12:12:36.117Z,13.20
2024-02-28T12:16:00.213Z,15.30
2024-02-28T12:19:26.278Z,12.50
2024-02-28T12:22:50.705Z,12.50
2024-02-28T12:26:14.715Z,13.90
2024-02-28T12:29:38.696Z,12.30
2024-02-28T12:33:02.771Z,13.90
2024-02-28T12:36:28.125Z,15.30
2024-02-28T12:39:52.761Z,14.90
2024-02-28T12:43:16.773Z,14.10
2024-02-28T12:46:40.788Z,13.20
2024-02-28T12:50:05.428Z,14.10
2024-02-28T12:53:29.480Z,14.90
2024-02-28T12:56:53.610Z,15.20
2024-02-28T13:00:18.598Z,17.10
2024-02-28T13:03:42.569Z,17.70
2024-02-28T13:07:07.048Z,17.60
2024-02-28T13:10:31.742Z,16.40
2024-02-28T13:13:56.130Z,17.70
2024-02-28T13:17:20.838Z,19.80
2024-02-28T13:20:44.879Z,20.10
2024-02-28T13:24:09.059Z,19.60
2024-02-28T13:27:33.110Z,19.30
2024-02-28T13:31:03.573Z,18.20
2024-02-28T13:34:30.078Z,17.90
2024-02-28T13:37:55.914Z,18.90
2024-02-28T13:41:19.970Z,18.90
2024-02-28T13:44:44.216Z,18.70
2024-02-28T13:48:18.445Z,17.70
2024-02-28T13:51:43.067Z,18.60
2024-02-28T13:55:09.428Z,17.10
2024-02-28T13:58:39.378Z,16.60
2024-02-28T14:02:10.321Z,14.90
2024-02-28T14:05:35.108Z,15.80
2024-02-28T14:08:59.355Z,15.70
2024-02-28T14:12:23.525Z,16.30
2024-02-28T14:15:48.097Z,17.40
2024-02-28T14:19:12.071Z,16.00
2024-02-28T14:22:36.051Z,15.40
2024-02-28T14:26:00.158Z,16.20
2024-02-28T14:29:24.168Z,15.80
2024-02-28T14:33:09.318Z,16.10
2024-02-28T14:37:07.660Z,17.20
2024-02-28T14:41:05.614Z,17.40
2024-02-28T14:45:03.594Z,18.00
2024-02-28T14:49:01.664Z,17.90
2024-02-28T14:52:59.613Z,18.20
2024-02-28T14:56:57.627Z,18.50
2024-02-28T15:00:56.768Z,21.70
2024-02-28T15:04:55.641Z,21.30
2024-02-28T15:08:53.596Z,20.60
2024-02-28T15:12:52.667Z,22.10
2024-02-28T15:16:50.615Z,22.50
2024-02-28T15:20:48.578Z,23.50
2024-02-28T15:24:47.615Z,23.10
2024-02-28T15:28:45.623Z,23.70
2024-02-28T15:32:46.550Z,23.10
2024-02-28T15:36:44.586Z,22.50
2024-02-28T15:40:42.682Z,25.90
2024-02-28T15:44:40.590Z,29.30
2024-02-28T15:48:38.549Z,27.60
2024-02-28T15:52:36.570Z,29.00
2024-02-28T15:56:34.523Z,27.10
2024-02-28T16:00:32.593Z,26.50
2024-02-28T16:04:30.517Z,28.40
2024-02-28T16:08:28.555Z,34.30
2024-02-28T16:12:26.541Z,34.10
2024-02-28T16:16:24.623Z,30.70
2024-02-28T16:20:23.522Z,29.30
2024-02-28T16:24:21.771Z,30.00
2024-02-28T16:28:19.527Z,30.20
2024-02-28T16:32:17.488Z,30.30
2024-02-28T16:36:15.526Z,29.90
2024-02-28T16:40:14.564Z,32.60
2024-02-28T16:44:12.452Z,33.20
2024-02-28T16:48:11.544Z,37.20
2024-02-28T16:52:09.474Z,36.60
2024-02-28T16:56:07.499Z,36.30
2024-02-28T17:00:05.520Z,38.10
2024-02-28T17:04:03.500Z,36.20
2024-02-28T17:08:01.440Z,39.50
2024-02-28T17:11:59.491Z,41.10
2024-02-28T17:16:01.564Z,44.50
2024-02-28T17:20:00.595Z,42.50
2024-02-28T17:23:58.549Z,43.70
2024-02-28T17:27:56.445Z,48.50
2024-02-28T17:31:54.447Z,51.60
2024-02-28T17:35:52.572Z,55.70
2024-02-28T17:39:50.535Z,61.10
2024-02-28T17:43:49.427Z,61.40
2024-02-28T17:47:47.410Z,73.20
2024-02-28T17:51:45.661Z,55.80
2024-02-28T17:55:43.426Z,66.60
2024-02-28T17:59:41.532Z,51.10
2024-02-28T18:03:39.432Z,59.70
2024-02-28T18:07:37.379Z,55.90
2024-02-28T18:11:44.407Z,56.00
2024-02-28T18:19:40.415Z,51.00
2024-02-28T18:23:38.412Z,53.00
2024-02-28T18:27:36.392Z,52.50
2024-02-28T18:31:34.409Z,55.90
2024-02-28T18:35:33.388Z,56.60
2024-02-28T18:39:31.511Z,59.50
2024-02-28T18:43:29.460Z,59.60
2024-02-28T18:47:27.704Z,60.00
2024-02-28T18:51:25.475Z,65.80
2024-02-28T18:55:23.413Z,68.00
2024-02-28T18:59:21.347Z,68.90
2024-02-28T19:03:19.406Z,81.30
2024-02-28T19:07:17.443Z,82.30
2024-02-28T19:11:15.364Z,74.80
2024-02-28T19:15:14.562Z,72.40
2024-02-28T19:19:12.461Z,74.40
2024-02-28T19:23:10.698Z,77.20
2024-02-28T19:27:08.448Z,62.90
2024-02-28T19:31:06.448Z,87.60
2024-02-28T19:35:04.410Z,96.00
2024-02-28T19:39:03.288Z,96.60
2024-02-28T19:43:01.337Z,91.60
2024-02-28T19:46:59.371Z,90.90
2024-02-28T19:50:57.562Z,86.90
2024-02-28T19:54:55.358Z,82.20
2024-02-28T19:58:55.445Z,78.20
2024-02-28T20:02:53.282Z,66.50
2024-02-28T20:06:51.331Z,57.70
2024-02-28T20:10:49.330Z,58.50
2024-02-28T20:14:49.276Z,53.20
2024-02-28T20:18:47.330Z,50.30
2024-02-28T20:22:45.367Z,50.80
2024-02-28T20:26:43.286Z,50.40
2024-02-28T20:30:41.415Z,49.40
2024-02-28T20:34:39.530Z,49.80
2024-02-28T20:38:37.266Z,53.20
2024-02-28T20:42:35.261Z,51.90
2024-02-28T20:46:33.241Z,51.70
2024-02-28T20:50:33.328Z,50.40
2024-02-28T20:54:31.881Z,49.90
2024-02-28T20:58:29.226Z,47.70
2024-02-28T21:02:27.316Z,47.60
2024-02-28T21:06:27.284Z,41.60
2024-02-28T21:10:25.306Z,37.30
2024-02-28T21:14:23.251Z,37.70
2024-02-28T21:18:22.033Z,37.90
2024-02-28T21:22:20.225Z,37.90
2024-02-28T21:26:18.244Z,37.60
2024-02-28T21:30:16.242Z,40.90
2024-02-28T21:34:14.278Z,35.60
2024-02-28T21:38:12.187Z,39.30
2024-02-28T21:42:11.189Z,38.30
2024-02-28T21:46:09.390Z,38.40
2024-02-28T21:50:07.288Z,38.20
2024-02-28T21:54:05.333Z,35.90
2024-02-28T21:58:03.298Z,37.40
2024-02-28T22:02:01.220Z,38.60
2024-02-28T22:05:59.189Z,36.30
2024-02-28T22:09:57.215Z,38.60
2024-02-28T22:13:55.245Z,40.30
2024-02-28T22:17:53.185Z,41.40
2024-02-28T22:21:51.256Z,41.60
2024-02-28T22:25:49.123Z,43.10
2024-02-28T22:29:47.110Z,42.80
2024-02-28T22:33:45.540Z,38.70
2024-02-28T22:37:43.305Z,37.30
2024-02-28T22:41:42.053Z,40.60
2024-02-28T22:45:40.170Z,40.40
2024-02-28T22:49:38.101Z,38.90
2024-02-28T22:53:36.412Z,40.20
2024-02-28T22:57:34.122Z,38.40
2024-02-28T23:01:32.130Z,37.30
2024-02-28T23:05:31.115Z,37.60
2024-02-28T23:09:36.330Z,40.00
2024-02-28T23:13:34.072Z,38.10
2024-02-28T23:17:41.123Z,38.90
2024-02-28T23:25:38.027Z,31.80
2024-02-28T23:29:37.004Z,31.90
2024-02-28T23:33:35.069Z,32.20
2024-02-28T23:37:32.991Z,30.20
2024-02-28T23:41:31.048Z,31.40
2024-02-28T23:45:29.171Z,34.20
2024-02-28T23:49:27.003Z,35.20
2024-02-28T23:53:24.964Z,34.40
2024-02-28T23:57:23.011Z,34.40
